sensor_id;sensor_type;location;lat;lon;timestamp;pressure;altitude;pressure_sealevel;temperature
10058;BMP180;5068;51.286;7.518;2022-09-16T00:00:30;98762.00;;;16.10
10058;BMP180;5068;51.286;7.518;2022-09-16T00:02:04;98759.00;;;16.10
10058;BMP180;5068;51.286;7.518;2022-09-16T00:03:40;98767.00;;;16.10
10058;BMP180;5068;51.286;7.518;2022-09-16T00:05:12;98764.00;;;16.10
10058;BMP180;5068;51.286;7.518;2022-09-16T00:06:45;98773.00;;;16.10
10058;BMP180;5068;51.286;7.518;2022-09-16T00:08:19;98765.00;;;16.10
10058;BMP180;5068;51.286;7.518;2022-09-16T00:09:53;98765.00;;;16.10
10058;BMP180;5068;51.286;7.518;2022-09-16T00:11:28;98770.00;;;16.10
10058;BMP180;5068;51.286;7.518;2022-09-16T00:13:04;98767.00;;;16.10
10058;BMP180;5068;51.286;7.518;2022-09-16T00:14:37;98767.00;;;16.00
10058;BMP180;5068;51.286;7.518;2022-09-16T00:16:17;98769.00;;;16.00
10058;BMP180;5068;51.286;7.518;2022-09-16T00:17:51;98764.00;;;16.00
10058;BMP180;5068;51.286;7.518;2022-09-16T00:19:25;98773.00;;;16.00
10058;BMP180;5068;51.286;7.518;2022-09-16T00:20:59;98763.00;;;16.00
10058;BMP180;5068;51.286;7.518;2022-09-16T00:22:33;98767.00;;;16.00
10058;BMP180;5068;51.286;7.518;2022-09-16T00:24:05;98769.00;;;16.00
10058;BMP180;5068;51.286;7.518;2022-09-16T00:25:39;98767.00;;;16.00
10058;BMP180;5068;51.286;7.518;2022-09-16T00:27:12;98773.00;;;16.00
10058;BMP180;5068;51.286;7.518;2022-09-16T00:28:47;98764.00;;;16.00
10058;BMP180;5068;51.286;7.518;2022-09-16T00:30:20;98763.00;;;16.00
10058;BMP180;5068;51.286;7.518;2022-09-16T00:31:54;98763.00;;;16.00
10058;BMP180;5068;51.286;7.518;2022-09-16T00:33:28;98774.00;;;16.00
10058;BMP180;5068;51.286;7.518;2022-09-16T00:35:03;98759.00;;;16.00
10058;BMP180;5068;51.286;7.518;2022-09-16T00:36:37;98763.00;;;16.00
10058;BMP180;5068;51.286;7.518;2022-09-16T00:38:11;98763.00;;;16.00
10058;BMP180;5068;51.286;7.518;2022-09-16T00:39:46;98759.00;;;16.00
10058;BMP180;5068;51.286;7.518;2022-09-16T00:41:25;98765.00;;;16.00
10058;BMP180;5068;51.286;7.518;2022-09-16T00:42:58;98767.00;;;16.00
10058;BMP180;5068;51.286;7.518;2022-09-16T00:44:57;98764.00;;;16.00
10058;BMP180;5068;51.286;7.518;2022-09-16T00:46:36;98764.00;;;15.90
10058;BMP180;5068;51.286;7.518;2022-09-16T00:48:17;98759.00;;;15.90
10058;BMP180;5068;51.286;7.518;2022-09-16T00:49:57;98757.00;;;15.90
10058;BMP180;5068;51.286;7.518;2022-09-16T00:51:34;98764.00;;;15.90
10058;BMP180;5068;51.286;7.518;2022-09-16T00:53:12;98768.00;;;15.90
10058;BMP180;5068;51.286;7.518;2022-09-16T00:54:47;98761.00;;;15.80
10058;BMP180;5068;51.286;7.518;2022-09-16T00:56:21;98756.00;;;15.80
10058;BMP180;5068;51.286;7.518;2022-09-16T00:58:00;98761.00;;;15.80
10058;BMP180;5068;51.286;7.518;2022-09-16T00:59:39;98753.00;;;15.80
10058;BMP180;5068;51.286;7.518;2022-09-16T01:01:14;98769.00;;;15.80
10058;BMP180;5068;51.286;7.518;2022-09-16T01:02:50;98761.00;;;15.80
10058;BMP180;5068;51.286;7.518;2022-09-16T01:04:29;98765.00;;;15.80
10058;BMP180;5068;51.286;7.518;2022-09-16T01:06:05;98760.00;;;15.70
10058;BMP180;5068;51.286;7.518;2022-09-16T01:07:45;98753.00;;;15.70
10058;BMP180;5068;51.286;7.518;2022-09-16T01:09:23;98767.00;;;15.70
10058;BMP180;5068;51.286;7.518;2022-09-16T01:10:58;98768.00;;;15.70
10058;BMP180;5068;51.286;7.518;2022-09-16T01:12:33;98758.00;;;15.70
10058;BMP180;5068;51.286;7.518;2022-09-16T01:14:11;98763.00;;;15.70
10058;BMP180;5068;51.286;7.518;2022-09-16T01:16:10;98767.00;;;15.70
10058;BMP180;5068;51.286;7.518;2022-09-16T01:18:07;98769.00;;;15.70
10058;BMP180;5068;51.286;7.518;2022-09-16T01:20:07;98757.00;;;15.70
10058;BMP180;5068;51.286;7.518;2022-09-16T01:21:47;98764.00;;;15.70
10058;BMP180;5068;51.286;7.518;2022-09-16T01:24:09;98765.00;;;15.70
10058;BMP180;5068;51.286;7.518;2022-09-16T01:26:02;98766.00;;;15.70
10058;BMP180;5068;51.286;7.518;2022-09-16T01:28:08;98773.00;;;15.70
10058;BMP180;5068;51.286;7.518;2022-09-16T01:30:38;98750.00;;;15.70
10058;BMP180;5068;51.286;7.518;2022-09-16T01:32:22;98749.00;;;15.60
10058;BMP180;5068;51.286;7.518;2022-09-16T01:34:07;98755.00;;;15.70
10058;BMP180;5068;51.286;7.518;2022-09-16T01:36:02;98760.00;;;15.70
10058;BMP180;5068;51.286;7.518;2022-09-16T01:37:51;98756.00;;;15.70
10058;BMP180;5068;51.286;7.518;2022-09-16T01:39:33;98754.00;;;15.70
10058;BMP180;5068;51.286;7.518;2022-09-16T01:41:21;98762.00;;;15.70
10058;BMP180;5068;51.286;7.518;2022-09-16T01:43:12;98756.00;;;15.70
10058;BMP180;5068;51.286;7.518;2022-09-16T01:44:59;98757.00;;;15.70
10058;BMP180;5068;51.286;7.518;2022-09-16T01:46:42;98753.00;;;15.80
10058;BMP180;5068;51.286;7.518;2022-09-16T01:48:24;98750.00;;;15.80
10058;BMP180;5068;51.286;7.518;2022-09-16T01:50:10;98760.00;;;15.80
10058;BMP180;5068;51.286;7.518;2022-09-16T01:51:51;98754.00;;;15.80
10058;BMP180;5068;51.286;7.518;2022-09-16T01:53:33;98761.00;;;15.80
10058;BMP180;5068;51.286;7.518;2022-09-16T01:55:13;98760.00;;;15.80
10058;BMP180;5068;51.286;7.518;2022-09-16T01:56:57;98760.00;;;15.80
10058;BMP180;5068;51.286;7.518;2022-09-16T01:58:40;98755.00;;;15.80
10058;BMP180;5068;51.286;7.518;2022-09-16T02:00:15;98756.00;;;15.90
10058;BMP180;5068;51.286;7.518;2022-09-16T02:01:57;98755.00;;;15.80
10058;BMP180;5068;51.286;7.518;2022-09-16T02:03:39;98764.00;;;15.90
10058;BMP180;5068;51.286;7.518;2022-09-16T02:05:18;98756.00;;;15.90
10058;BMP180;5068;51.286;7.518;2022-09-16T02:06:56;98762.00;;;15.90
10058;BMP180;5068;51.286;7.518;2022-09-16T02:08:36;98761.00;;;15.90
10058;BMP180;5068;51.286;7.518;2022-09-16T02:10:19;98755.00;;;15.90
10058;BMP180;5068;51.286;7.518;2022-09-16T02:11:57;98760.00;;;15.90
10058;BMP180;5068;51.286;7.518;2022-09-16T02:13:41;98758.00;;;15.90
10058;BMP180;5068;51.286;7.518;2022-09-16T02:15:21;98753.00;;;15.90
10058;BMP180;5068;51.286;7.518;2022-09-16T02:16:59;98754.00;;;15.90
10058;BMP180;5068;51.286;7.518;2022-09-16T02:18:37;98755.00;;;15.90
10058;BMP180;5068;51.286;7.518;2022-09-16T02:20:18;98757.00;;;15.90
10058;BMP180;5068;51.286;7.518;2022-09-16T02:21:56;98745.00;;;15.90
10058;BMP180;5068;51.286;7.518;2022-09-16T02:23:37;98750.00;;;15.90
10058;BMP180;5068;51.286;7.518;2022-09-16T02:25:15;98744.00;;;15.90
10058;BMP180;5068;51.286;7.518;2022-09-16T02:26:55;98754.00;;;15.90
10058;BMP180;5068;51.286;7.518;2022-09-16T02:28:35;98748.00;;;15.90
10058;BMP180;5068;51.286;7.518;2022-09-16T02:30:14;98751.00;;;15.90
10058;BMP180;5068;51.286;7.518;2022-09-16T02:31:51;98749.00;;;15.90
10058;BMP180;5068;51.286;7.518;2022-09-16T02:33:33;98742.00;;;15.90
10058;BMP180;5068;51.286;7.518;2022-09-16T02:35:13;98750.00;;;15.90
10058;BMP180;5068;51.286;7.518;2022-09-16T02:36:55;98749.00;;;15.80
10058;BMP180;5068;51.286;7.518;2022-09-16T02:38:36;98751.00;;;15.80
10058;BMP180;5068;51.286;7.518;2022-09-16T02:40:16;98755.00;;;15.80
10058;BMP180;5068;51.286;7.518;2022-09-16T02:41:50;98755.00;;;15.80
10058;BMP180;5068;51.286;7.518;2022-09-16T02:43:26;98752.00;;;15.80
10058;BMP180;5068;51.286;7.518;2022-09-16T02:45:01;98756.00;;;15.80
10058;BMP180;5068;51.286;7.518;2022-09-16T02:46:47;98755.00;;;15.80
10058;BMP180;5068;51.286;7.518;2022-09-16T02:48:34;98747.00;;;15.70
10058;BMP180;5068;51.286;7.518;2022-09-16T02:50:14;98749.00;;;15.70
10058;BMP180;5068;51.286;7.518;2022-09-16T02:51:58;98736.00;;;15.80
10058;BMP180;5068;51.286;7.518;2022-09-16T02:53:43;98736.00;;;15.80
10058;BMP180;5068;51.286;7.518;2022-09-16T02:55:29;98745.00;;;15.80
10058;BMP180;5068;51.286;7.518;2022-09-16T02:57:08;98739.00;;;15.80
10058;BMP180;5068;51.286;7.518;2022-09-16T02:58:42;98738.00;;;15.80
10058;BMP180;5068;51.286;7.518;2022-09-16T03:00:36;98736.00;;;15.80
10058;BMP180;5068;51.286;7.518;2022-09-16T03:02:12;98737.00;;;15.80
10058;BMP180;5068;51.286;7.518;2022-09-16T03:03:46;98733.00;;;15.80
10058;BMP180;5068;51.286;7.518;2022-09-16T03:05:26;98734.00;;;15.80
10058;BMP180;5068;51.286;7.518;2022-09-16T03:07:03;98730.00;;;15.80
10058;BMP180;5068;51.286;7.518;2022-09-16T03:08:39;98731.00;;;15.80
10058;BMP180;5068;51.286;7.518;2022-09-16T03:10:12;98730.00;;;15.80
10058;BMP180;5068;51.286;7.518;2022-09-16T03:12:19;98737.00;;;15.80
10058;BMP180;5068;51.286;7.518;2022-09-16T03:14:14;98727.00;;;15.80
10058;BMP180;5068;51.286;7.518;2022-09-16T03:15:58;98731.00;;;15.80
10058;BMP180;5068;51.286;7.518;2022-09-16T03:17:51;98729.00;;;15.80
10058;BMP180;5068;51.286;7.518;2022-09-16T03:19:36;98730.00;;;15.80
10058;BMP180;5068;51.286;7.518;2022-09-16T03:21:21;98737.00;;;15.80
10058;BMP180;5068;51.286;7.518;2022-09-16T03:23:08;98733.00;;;15.80
10058;BMP180;5068;51.286;7.518;2022-09-16T03:24:57;98730.00;;;15.80
10058;BMP180;5068;51.286;7.518;2022-09-16T03:26:45;98729.00;;;15.80
10058;BMP180;5068;51.286;7.518;2022-09-16T03:28:24;98727.00;;;15.80
10058;BMP180;5068;51.286;7.518;2022-09-16T03:30:04;98725.00;;;15.80
10058;BMP180;5068;51.286;7.518;2022-09-16T03:31:45;98727.00;;;15.80
10058;BMP180;5068;51.286;7.518;2022-09-16T03:33:26;98733.00;;;15.80
10058;BMP180;5068;51.286;7.518;2022-09-16T03:35:11;98738.00;;;15.80
10058;BMP180;5068;51.286;7.518;2022-09-16T03:36:53;98740.00;;;15.80
10058;BMP180;5068;51.286;7.518;2022-09-16T03:38:31;98734.00;;;15.80
10058;BMP180;5068;51.286;7.518;2022-09-16T03:40:10;98734.00;;;15.80
10058;BMP180;5068;51.286;7.518;2022-09-16T03:41:45;98733.00;;;15.80
10058;BMP180;5068;51.286;7.518;2022-09-16T03:43:19;98732.00;;;15.80
10058;BMP180;5068;51.286;7.518;2022-09-16T03:44:53;98727.00;;;15.80
10058;BMP180;5068;51.286;7.518;2022-09-16T03:46:26;98728.00;;;15.80
10058;BMP180;5068;51.286;7.518;2022-09-16T03:48:00;98726.00;;;15.80
10058;BMP180;5068;51.286;7.518;2022-09-16T03:49:35;98724.00;;;15.80
10058;BMP180;5068;51.286;7.518;2022-09-16T03:51:10;98714.00;;;15.80
10058;BMP180;5068;51.286;7.518;2022-09-16T03:52:43;98711.00;;;15.80
10058;BMP180;5068;51.286;7.518;2022-09-16T03:54:17;98713.00;;;15.80
10058;BMP180;5068;51.286;7.518;2022-09-16T03:55:50;98712.00;;;15.80
10058;BMP180;5068;51.286;7.518;2022-09-16T03:57:23;98716.00;;;15.80
10058;BMP180;5068;51.286;7.518;2022-09-16T03:58:59;98711.00;;;15.80
10058;BMP180;5068;51.286;7.518;2022-09-16T04:00:33;98715.00;;;15.80
10058;BMP180;5068;51.286;7.518;2022-09-16T04:02:06;98715.00;;;15.80
10058;BMP180;5068;51.286;7.518;2022-09-16T04:03:40;98713.00;;;15.80
10058;BMP180;5068;51.286;7.518;2022-09-16T04:05:12;98715.00;;;15.80
10058;BMP180;5068;51.286;7.518;2022-09-16T04:06:47;98710.00;;;15.80
10058;BMP180;5068;51.286;7.518;2022-09-16T04:08:21;98713.00;;;15.80
10058;BMP180;5068;51.286;7.518;2022-09-16T04:09:55;98704.00;;;15.80
10058;BMP180;5068;51.286;7.518;2022-09-16T04:11:28;98706.00;;;15.80
10058;BMP180;5068;51.286;7.518;2022-09-16T04:13:03;98711.00;;;15.80
10058;BMP180;5068;51.286;7.518;2022-09-16T04:14:36;98695.00;;;15.80
10058;BMP180;5068;51.286;7.518;2022-09-16T04:16:09;98704.00;;;15.80
10058;BMP180;5068;51.286;7.518;2022-09-16T04:17:42;98703.00;;;15.90
10058;BMP180;5068;51.286;7.518;2022-09-16T04:19:14;98703.00;;;15.80
10058;BMP180;5068;51.286;7.518;2022-09-16T04:20:48;98701.00;;;15.80
10058;BMP180;5068;51.286;7.518;2022-09-16T04:22:21;98708.00;;;15.80
10058;BMP180;5068;51.286;7.518;2022-09-16T04:23:55;98705.00;;;15.80
10058;BMP180;5068;51.286;7.518;2022-09-16T04:25:28;98701.00;;;15.80
10058;BMP180;5068;51.286;7.518;2022-09-16T04:27:02;98703.00;;;15.80
10058;BMP180;5068;51.286;7.518;2022-09-16T04:28:35;98708.00;;;15.80
10058;BMP180;5068;51.286;7.518;2022-09-16T04:30:11;98701.00;;;15.70
10058;BMP180;5068;51.286;7.518;2022-09-16T04:31:44;98698.00;;;15.70
10058;BMP180;5068;51.286;7.518;2022-09-16T04:33:18;98700.00;;;15.70
10058;BMP180;5068;51.286;7.518;2022-09-16T04:34:51;98710.00;;;15.70
10058;BMP180;5068;51.286;7.518;2022-09-16T04:36:24;98699.00;;;15.70
10058;BMP180;5068;51.286;7.518;2022-09-16T04:37:59;98698.00;;;15.70
10058;BMP180;5068;51.286;7.518;2022-09-16T04:39:32;98698.00;;;15.70
10058;BMP180;5068;51.286;7.518;2022-09-16T04:41:09;98701.00;;;15.70
10058;BMP180;5068;51.286;7.518;2022-09-16T04:42:48;98695.00;;;15.70
10058;BMP180;5068;51.286;7.518;2022-09-16T04:44:21;98696.00;;;15.60
10058;BMP180;5068;51.286;7.518;2022-09-16T04:45:54;98706.00;;;15.60
10058;BMP180;5068;51.286;7.518;2022-09-16T04:47:28;98703.00;;;15.60
10058;BMP180;5068;51.286;7.518;2022-09-16T04:49:01;98707.00;;;15.60
10058;BMP180;5068;51.286;7.518;2022-09-16T04:50:35;98703.00;;;15.60
10058;BMP180;5068;51.286;7.518;2022-09-16T04:52:08;98706.00;;;15.60
10058;BMP180;5068;51.286;7.518;2022-09-16T04:53:44;98701.00;;;15.60
10058;BMP180;5068;51.286;7.518;2022-09-16T04:55:18;98709.00;;;15.50
10058;BMP180;5068;51.286;7.518;2022-09-16T04:56:56;98711.00;;;15.50
10058;BMP180;5068;51.286;7.518;2022-09-16T04:58:29;98716.00;;;15.50
10058;BMP180;5068;51.286;7.518;2022-09-16T05:00:03;98711.00;;;15.50
10058;BMP180;5068;51.286;7.518;2022-09-16T05:01:38;98723.00;;;15.50
10058;BMP180;5068;51.286;7.518;2022-09-16T05:03:13;98714.00;;;15.50
10058;BMP180;5068;51.286;7.518;2022-09-16T05:04:47;98707.00;;;15.50
10058;BMP180;5068;51.286;7.518;2022-09-16T05:06:24;98715.00;;;15.50
10058;BMP180;5068;51.286;7.518;2022-09-16T05:07:58;98709.00;;;15.50
10058;BMP180;5068;51.286;7.518;2022-09-16T05:09:33;98707.00;;;15.50
10058;BMP180;5068;51.286;7.518;2022-09-16T05:11:12;98723.00;;;15.50
10058;BMP180;5068;51.286;7.518;2022-09-16T05:12:50;98717.00;;;15.50
10058;BMP180;5068;51.286;7.518;2022-09-16T05:14:24;98708.00;;;15.50
10058;BMP180;5068;51.286;7.518;2022-09-16T05:16:01;98708.00;;;15.50
10058;BMP180;5068;51.286;7.518;2022-09-16T05:17:34;98708.00;;;15.50
10058;BMP180;5068;51.286;7.518;2022-09-16T05:19:25;98717.00;;;15.50
10058;BMP180;5068;51.286;7.518;2022-09-16T05:21:00;98710.00;;;15.50
10058;BMP180;5068;51.286;7.518;2022-09-16T05:22:33;98702.00;;;15.50
10058;BMP180;5068;51.286;7.518;2022-09-16T05:24:09;98711.00;;;15.50
10058;BMP180;5068;51.286;7.518;2022-09-16T05:25:44;98709.00;;;15.50
10058;BMP180;5068;51.286;7.518;2022-09-16T05:27:17;98705.00;;;15.50
10058;BMP180;5068;51.286;7.518;2022-09-16T05:28:51;98706.00;;;15.50
10058;BMP180;5068;51.286;7.518;2022-09-16T05:30:25;98701.00;;;15.50
10058;BMP180;5068;51.286;7.518;2022-09-16T05:31:58;98706.00;;;15.50
10058;BMP180;5068;51.286;7.518;2022-09-16T05:33:32;98713.00;;;15.50
10058;BMP180;5068;51.286;7.518;2022-09-16T05:35:05;98711.00;;;15.50
10058;BMP180;5068;51.286;7.518;2022-09-16T05:36:40;98702.00;;;15.50
10058;BMP180;5068;51.286;7.518;2022-09-16T05:38:14;98711.00;;;15.50
10058;BMP180;5068;51.286;7.518;2022-09-16T05:39:48;98709.00;;;15.50
10058;BMP180;5068;51.286;7.518;2022-09-16T05:41:23;98712.00;;;15.50
10058;BMP180;5068;51.286;7.518;2022-09-16T05:42:56;98714.00;;;15.50
10058;BMP180;5068;51.286;7.518;2022-09-16T05:44:30;98717.00;;;15.50
10058;BMP180;5068;51.286;7.518;2022-09-16T05:46:06;98716.00;;;15.50
10058;BMP180;5068;51.286;7.518;2022-09-16T05:47:39;98712.00;;;15.60
10058;BMP180;5068;51.286;7.518;2022-09-16T05:49:13;98711.00;;;15.60
10058;BMP180;5068;51.286;7.518;2022-09-16T05:50:53;98710.00;;;15.60
10058;BMP180;5068;51.286;7.518;2022-09-16T05:52:27;98715.00;;;15.60
10058;BMP180;5068;51.286;7.518;2022-09-16T05:54:00;98709.00;;;15.70
10058;BMP180;5068;51.286;7.518;2022-09-16T05:55:34;98709.00;;;15.70
10058;BMP180;5068;51.286;7.518;2022-09-16T05:57:08;98716.00;;;15.70
10058;BMP180;5068;51.286;7.518;2022-09-16T05:58:42;98704.00;;;15.70
10058;BMP180;5068;51.286;7.518;2022-09-16T06:00:16;98703.00;;;15.70
10058;BMP180;5068;51.286;7.518;2022-09-16T06:01:49;98712.00;;;15.70
10058;BMP180;5068;51.286;7.518;2022-09-16T06:03:23;98712.00;;;15.70
10058;BMP180;5068;51.286;7.518;2022-09-16T06:04:58;98719.00;;;15.70
10058;BMP180;5068;51.286;7.518;2022-09-16T06:06:34;98713.00;;;15.70
10058;BMP180;5068;51.286;7.518;2022-09-16T06:08:07;98712.00;;;15.70
10058;BMP180;5068;51.286;7.518;2022-09-16T06:09:41;98704.00;;;15.70
10058;BMP180;5068;51.286;7.518;2022-09-16T06:11:16;98701.00;;;15.80
10058;BMP180;5068;51.286;7.518;2022-09-16T06:12:50;98702.00;;;15.80
10058;BMP180;5068;51.286;7.518;2022-09-16T06:14:24;98702.00;;;15.80
10058;BMP180;5068;51.286;7.518;2022-09-16T06:15:58;98709.00;;;15.80
10058;BMP180;5068;51.286;7.518;2022-09-16T06:17:30;98702.00;;;15.80
10058;BMP180;5068;51.286;7.518;2022-09-16T06:19:06;98699.00;;;15.90
10058;BMP180;5068;51.286;7.518;2022-09-16T06:20:41;98703.00;;;15.90
10058;BMP180;5068;51.286;7.518;2022-09-16T06:22:15;98704.00;;;15.90
10058;BMP180;5068;51.286;7.518;2022-09-16T06:23:50;98712.00;;;15.90
10058;BMP180;5068;51.286;7.518;2022-09-16T06:25:24;98708.00;;;15.90
10058;BMP180;5068;51.286;7.518;2022-09-16T06:26:57;98710.00;;;15.90
10058;BMP180;5068;51.286;7.518;2022-09-16T06:28:32;98708.00;;;15.90
10058;BMP180;5068;51.286;7.518;2022-09-16T06:30:08;98703.00;;;15.90
10058;BMP180;5068;51.286;7.518;2022-09-16T06:31:43;98704.00;;;15.90
10058;BMP180;5068;51.286;7.518;2022-09-16T06:33:16;98701.00;;;15.90
10058;BMP180;5068;51.286;7.518;2022-09-16T06:34:49;98702.00;;;15.90
10058;BMP180;5068;51.286;7.518;2022-09-16T06:36:28;98705.00;;;15.90
10058;BMP180;5068;51.286;7.518;2022-09-16T06:38:03;98712.00;;;15.90
10058;BMP180;5068;51.286;7.518;2022-09-16T06:39:36;98707.00;;;15.90
10058;BMP180;5068;51.286;7.518;2022-09-16T06:41:12;98704.00;;;15.90
10058;BMP180;5068;51.286;7.518;2022-09-16T06:42:46;98698.00;;;15.90
10058;BMP180;5068;51.286;7.518;2022-09-16T06:44:20;98701.00;;;15.90
10058;BMP180;5068;51.286;7.518;2022-09-16T06:45:58;98706.00;;;16.00
10058;BMP180;5068;51.286;7.518;2022-09-16T06:47:32;98705.00;;;16.00
10058;BMP180;5068;51.286;7.518;2022-09-16T06:49:05;98705.00;;;16.00
10058;BMP180;5068;51.286;7.518;2022-09-16T06:50:38;98700.00;;;16.00
10058;BMP180;5068;51.286;7.518;2022-09-16T06:52:11;98703.00;;;16.00
10058;BMP180;5068;51.286;7.518;2022-09-16T06:53:45;98709.00;;;16.00
10058;BMP180;5068;51.286;7.518;2022-09-16T06:55:17;98704.00;;;16.00
10058;BMP180;5068;51.286;7.518;2022-09-16T06:56:51;98710.00;;;16.00
10058;BMP180;5068;51.286;7.518;2022-09-16T06:58:24;98705.00;;;16.00
10058;BMP180;5068;51.286;7.518;2022-09-16T06:59:58;98699.00;;;16.10
10058;BMP180;5068;51.286;7.518;2022-09-16T07:01:32;98703.00;;;16.10
10058;BMP180;5068;51.286;7.518;2022-09-16T07:03:06;98697.00;;;16.10
10058;BMP180;5068;51.286;7.518;2022-09-16T07:04:39;98704.00;;;16.10
10058;BMP180;5068;51.286;7.518;2022-09-16T07:06:14;98709.00;;;16.10
10058;BMP180;5068;51.286;7.518;2022-09-16T07:07:48;98712.00;;;16.20
10058;BMP180;5068;51.286;7.518;2022-09-16T07:09:21;98708.00;;;16.20
10058;BMP180;5068;51.286;7.518;2022-09-16T07:10:59;98708.00;;;16.20
10058;BMP180;5068;51.286;7.518;2022-09-16T07:12:32;98717.00;;;16.30
10058;BMP180;5068;51.286;7.518;2022-09-16T07:14:07;98715.00;;;16.30
10058;BMP180;5068;51.286;7.518;2022-09-16T07:15:42;98719.00;;;16.30
10058;BMP180;5068;51.286;7.518;2022-09-16T07:17:36;98719.00;;;16.30
10058;BMP180;5068;51.286;7.518;2022-09-16T07:19:09;98722.00;;;16.30
10058;BMP180;5068;51.286;7.518;2022-09-16T07:20:43;98717.00;;;16.40
10058;BMP180;5068;51.286;7.518;2022-09-16T07:22:17;98716.00;;;16.40
10058;BMP180;5068;51.286;7.518;2022-09-16T07:23:54;98722.00;;;16.40
10058;BMP180;5068;51.286;7.518;2022-09-16T07:25:29;98719.00;;;16.40
10058;BMP180;5068;51.286;7.518;2022-09-16T07:27:07;98708.00;;;16.40
10058;BMP180;5068;51.286;7.518;2022-09-16T07:28:42;98714.00;;;16.50
10058;BMP180;5068;51.286;7.518;2022-09-16T07:30:17;98718.00;;;16.50
10058;BMP180;5068;51.286;7.518;2022-09-16T07:31:51;98718.00;;;16.50
10058;BMP180;5068;51.286;7.518;2022-09-16T07:33:25;98720.00;;;16.50
10058;BMP180;5068;51.286;7.518;2022-09-16T07:34:58;98722.00;;;16.50
10058;BMP180;5068;51.286;7.518;2022-09-16T07:36:34;98726.00;;;16.50
10058;BMP180;5068;51.286;7.518;2022-09-16T07:38:08;98723.00;;;16.60
10058;BMP180;5068;51.286;7.518;2022-09-16T07:39:42;98721.00;;;16.60
10058;BMP180;5068;51.286;7.518;2022-09-16T07:41:21;98735.00;;;16.60
10058;BMP180;5068;51.286;7.518;2022-09-16T07:42:54;98737.00;;;16.60
10058;BMP180;5068;51.286;7.518;2022-09-16T07:44:28;98739.00;;;16.70
10058;BMP180;5068;51.286;7.518;2022-09-16T07:46:02;98738.00;;;16.70
10058;BMP180;5068;51.286;7.518;2022-09-16T07:47:37;98746.00;;;16.70
10058;BMP180;5068;51.286;7.518;2022-09-16T07:49:13;98736.00;;;16.80
10058;BMP180;5068;51.286;7.518;2022-09-16T07:50:54;98739.00;;;16.80
10058;BMP180;5068;51.286;7.518;2022-09-16T07:52:27;98732.00;;;16.80
10058;BMP180;5068;51.286;7.518;2022-09-16T07:54:05;98733.00;;;16.90
10058;BMP180;5068;51.286;7.518;2022-09-16T07:55:39;98747.00;;;16.90
10058;BMP180;5068;51.286;7.518;2022-09-16T07:57:12;98742.00;;;16.90
10058;BMP180;5068;51.286;7.518;2022-09-16T07:58:47;98743.00;;;16.90
10058;BMP180;5068;51.286;7.518;2022-09-16T08:00:20;98743.00;;;17.00
10058;BMP180;5068;51.286;7.518;2022-09-16T08:01:53;98739.00;;;17.00
10058;BMP180;5068;51.286;7.518;2022-09-16T08:03:28;98742.00;;;17.00
10058;BMP180;5068;51.286;7.518;2022-09-16T08:05:02;98746.00;;;17.00
10058;BMP180;5068;51.286;7.518;2022-09-16T08:06:38;98740.00;;;17.10
10058;BMP180;5068;51.286;7.518;2022-09-16T08:08:12;98743.00;;;17.10
10058;BMP180;5068;51.286;7.518;2022-09-16T08:09:45;98741.00;;;17.10
10058;BMP180;5068;51.286;7.518;2022-09-16T08:11:25;98745.00;;;17.10
10058;BMP180;5068;51.286;7.518;2022-09-16T08:12:58;98732.00;;;17.20
10058;BMP180;5068;51.286;7.518;2022-09-16T08:14:32;98735.00;;;17.20
10058;BMP180;5068;51.286;7.518;2022-09-16T08:16:08;98735.00;;;17.20
10058;BMP180;5068;51.286;7.518;2022-09-16T08:17:42;98744.00;;;17.20
10058;BMP180;5068;51.286;7.518;2022-09-16T08:19:18;98741.00;;;17.20
10058;BMP180;5068;51.286;7.518;2022-09-16T08:20:51;98746.00;;;17.20
10058;BMP180;5068;51.286;7.518;2022-09-16T08:22:24;98746.00;;;17.20
10058;BMP180;5068;51.286;7.518;2022-09-16T08:23:58;98752.00;;;17.20
10058;BMP180;5068;51.286;7.518;2022-09-16T08:25:31;98751.00;;;17.20
10058;BMP180;5068;51.286;7.518;2022-09-16T08:27:05;98746.00;;;17.20
10058;BMP180;5068;51.286;7.518;2022-09-16T08:28:40;98746.00;;;17.20
10058;BMP180;5068;51.286;7.518;2022-09-16T08:30:35;98743.00;;;17.30
10058;BMP180;5068;51.286;7.518;2022-09-16T08:32:09;98747.00;;;17.30
10058;BMP180;5068;51.286;7.518;2022-09-16T08:33:43;98762.00;;;17.40
10058;BMP180;5068;51.286;7.518;2022-09-16T08:35:18;98756.00;;;17.40
10058;BMP180;5068;51.286;7.518;2022-09-16T08:36:51;98756.00;;;17.50
10058;BMP180;5068;51.286;7.518;2022-09-16T08:38:25;98766.00;;;17.50
10058;BMP180;5068;51.286;7.518;2022-09-16T08:39:58;98758.00;;;17.50
10058;BMP180;5068;51.286;7.518;2022-09-16T08:41:51;98764.00;;;17.60
10058;BMP180;5068;51.286;7.518;2022-09-16T08:43:37;98759.00;;;17.60
10058;BMP180;5068;51.286;7.518;2022-09-16T08:45:29;98762.00;;;17.70
10058;BMP180;5068;51.286;7.518;2022-09-16T08:47:14;98758.00;;;17.80
10058;BMP180;5068;51.286;7.518;2022-09-16T08:48:58;98765.00;;;17.80
10058;BMP180;5068;51.286;7.518;2022-09-16T08:50:38;98771.00;;;17.80
10058;BMP180;5068;51.286;7.518;2022-09-16T08:52:16;98772.00;;;17.90
10058;BMP180;5068;51.286;7.518;2022-09-16T08:53:56;98759.00;;;17.80
10058;BMP180;5068;51.286;7.518;2022-09-16T08:55:36;98764.00;;;17.80
10058;BMP180;5068;51.286;7.518;2022-09-16T08:57:16;98758.00;;;17.80
10058;BMP180;5068;51.286;7.518;2022-09-16T08:58:54;98760.00;;;17.80
10058;BMP180;5068;51.286;7.518;2022-09-16T09:00:29;98762.00;;;17.80
10058;BMP180;5068;51.286;7.518;2022-09-16T09:02:32;98762.00;;;17.80
10058;BMP180;5068;51.286;7.518;2022-09-16T09:04:07;98767.00;;;17.90
10058;BMP180;5068;51.286;7.518;2022-09-16T09:05:50;98761.00;;;17.90
10058;BMP180;5068;51.286;7.518;2022-09-16T09:07:39;98760.00;;;18.00
10058;BMP180;5068;51.286;7.518;2022-09-16T09:09:37;98763.00;;;18.00
10058;BMP180;5068;51.286;7.518;2022-09-16T09:11:31;98762.00;;;18.10
10058;BMP180;5068;51.286;7.518;2022-09-16T09:13:26;98765.00;;;18.20
10058;BMP180;5068;51.286;7.518;2022-09-16T09:15:22;98757.00;;;18.20
10058;BMP180;5068;51.286;7.518;2022-09-16T09:17:10;98756.00;;;18.30
10058;BMP180;5068;51.286;7.518;2022-09-16T09:19:03;98755.00;;;18.30
10058;BMP180;5068;51.286;7.518;2022-09-16T09:20:50;98748.00;;;18.40
10058;BMP180;5068;51.286;7.518;2022-09-16T09:22:54;98750.00;;;18.50
10058;BMP180;5068;51.286;7.518;2022-09-16T09:24:49;98751.00;;;18.50
10058;BMP180;5068;51.286;7.518;2022-09-16T09:26:47;98755.00;;;18.60
10058;BMP180;5068;51.286;7.518;2022-09-16T09:28:47;98758.00;;;18.60
10058;BMP180;5068;51.286;7.518;2022-09-16T09:30:23;98763.00;;;18.60
10058;BMP180;5068;51.286;7.518;2022-09-16T09:32:13;98762.00;;;18.60
10058;BMP180;5068;51.286;7.518;2022-09-16T09:34:02;98761.00;;;18.70